createdAt,value
2022-12-01T00:00:15.576Z,46.29
2022-12-01T00:05:15.469Z,37.90
2022-12-01T00:10:15.398Z,56.00
2022-12-01T00:15:15.347Z,41.90
2022-12-01T00:20:15.275Z,40.29
2022-12-01T00:25:15.221Z,52.20
2022-12-01T00:30:15.148Z,49.20
2022-12-01T00:35:15.095Z,44.50
2022-12-01T00:40:15.022Z,45.00
2022-12-01T00:45:14.967Z,44.09
2022-12-01T00:50:14.898Z,48.29
2022-12-01T00:55:14.851Z,49.20
2022-12-01T01:00:14.771Z,49.40
2022-12-01T01:05:14.729Z,48.59
2022-12-01T01:10:14.647Z,44.09
2022-12-01T01:15:14.600Z,46.20
2022-12-01T01:20:14.521Z,48.70
2022-12-01T01:25:14.475Z,51.59
2022-12-01T01:30:14.392Z,55.50
2022-12-01T01:35:14.336Z,64.90
2022-12-01T01:40:14.297Z,59.90
2022-12-01T01:45:14.205Z,58.40
2022-12-01T01:50:14.135Z,56.90
2022-12-01T01:55:14.082Z,54.09
2022-12-01T02:00:14.006Z,59.79
2022-12-01T02:05:13.950Z,50.29
2022-12-01T02:10:13.876Z,60.00
2022-12-01T02:15:13.828Z,58.59
2022-12-01T02:20:13.751Z,52.90
2022-12-01T02:25:13.700Z,58.09
2022-12-01T02:30:13.617Z,64.30
2022-12-01T02:35:13.570Z,56.29
2022-12-01T02:40:13.488Z,62.50
2022-12-01T02:45:13.441Z,57.29
2022-12-01T02:50:13.359Z,67.80
2022-12-01T02:55:13.311Z,67.59
2022-12-01T03:00:13.233Z,60.29
2022-12-01T03:05:13.187Z,61.70
2022-12-01T03:10:13.096Z,62.79
2022-12-01T03:15:13.051Z,56.00
2022-12-01T03:20:12.967Z,57.59
2022-12-01T03:25:12.920Z,54.20
2022-12-01T03:30:12.837Z,60.79
2022-12-01T03:35:12.782Z,64.90
2022-12-01T03:40:12.711Z,61.50
2022-12-01T03:45:12.654Z,52.40
2022-12-01T03:50:12.581Z,56.79
2022-12-01T03:55:12.526Z,52.00
2022-12-01T04:00:12.453Z,58.59
2022-12-01T04:05:12.394Z,56.79
2022-12-01T04:10:12.323Z,60.79
2022-12-01T04:15:12.279Z,57.40
2022-12-01T04:20:12.200Z,60.09
2022-12-01T04:25:12.153Z,52.29
2022-12-01T04:30:12.076Z,60.40
2022-12-01T04:35:12.007Z,53.00
2022-12-01T04:40:11.951Z,52.50
2022-12-01T04:45:11.879Z,53.09
2022-12-01T04:50:11.825Z,60.29
2022-12-01T04:55:11.752Z,62.29
2022-12-01T05:00:11.706Z,58.50
2022-12-01T05:05:11.624Z,51.70
2022-12-01T05:10:11.577Z,59.09
2022-12-01T05:15:11.497Z,49.40
2022-12-01T05:20:11.451Z,52.00
2022-12-01T05:25:11.372Z,61.70
2022-12-01T05:30:11.325Z,43.70
2022-12-01T05:35:11.256Z,52.00
2022-12-01T05:40:11.190Z,53.40
2022-12-01T05:45:11.130Z,52.20
2022-12-01T05:50:11.065Z,57.09
2022-12-01T05:55:11.004Z,56.09
2022-12-01T06:00:10.937Z,44.50
2022-12-01T06:05:10.879Z,53.40
2022-12-01T06:10:10.809Z,54.00
2022-12-01T06:15:10.740Z,50.90
2022-12-01T06:20:10.694Z,63.79
2022-12-01T06:25:10.615Z,57.90
2022-12-01T06:30:10.562Z,55.09
2022-12-01T06:35:10.490Z,54.00
2022-12-01T06:40:10.433Z,53.29
2022-12-01T06:45:10.364Z,54.59
2022-12-01T06:50:10.308Z,50.29
2022-12-01T06:55:10.255Z,55.70
2022-12-01T07:00:10.181Z,47.59
2022-12-01T07:05:10.124Z,49.79
2022-12-01T07:10:10.105Z,57.00
2022-12-01T07:15:09.996Z,58.29
2022-12-01T07:20:09.933Z,45.70
2022-12-01T07:25:09.870Z,44.50
2022-12-01T07:30:09.804Z,46.09
2022-12-01T07:35:09.732Z,39.90
2022-12-01T07:40:09.678Z,39.20
2022-12-01T07:45:09.714Z,38.09
2022-12-01T07:50:09.552Z,40.00
2022-12-01T07:55:09.482Z,40.79
2022-12-01T08:00:09.423Z,42.50
2022-12-01T08:05:09.352Z,49.90
2022-12-01T08:10:09.297Z,39.59
2022-12-01T08:15:09.232Z,43.70
2022-12-01T08:20:09.162Z,38.50
2022-12-01T08:25:09.126Z,36.70
2022-12-01T08:30:09.031Z,40.70
2022-12-01T08:35:08.976Z,47.59
2022-12-01T08:40:08.904Z,46.00
2022-12-01T08:45:08.848Z,50.90
2022-12-01T08:50:08.777Z,49.40
2022-12-01T08:55:08.732Z,39.70
2022-12-01T09:00:08.653Z,39.59
2022-12-01T09:05:08.605Z,44.79
2022-12-01T09:10:08.524Z,46.79
2022-12-01T09:15:08.478Z,41.20
2022-12-01T09:20:08.399Z,42.50
2022-12-01T09:25:08.357Z,42.70
2022-12-01T09:30:08.274Z,34.90
2022-12-01T09:35:08.216Z,41.00
2022-12-01T09:40:08.146Z,39.70
2022-12-01T09:45:08.089Z,46.20
2022-12-01T09:50:08.029Z,47.20
2022-12-01T09:55:07.962Z,47.20
2022-12-01T10:00:07.892Z,42.50
2022-12-01T10:05:07.958Z,45.90
2022-12-01T10:10:07.764Z,43.09
2022-12-01T10:15:07.718Z,43.00
2022-12-01T10:20:07.642Z,52.20
2022-12-01T10:25:07.592Z,46.29
2022-12-01T10:30:07.546Z,39.50
2022-12-01T10:35:07.471Z,40.50
2022-12-01T10:40:07.387Z,34.20
2022-12-01T10:45:07.346Z,47.20
2022-12-01T10:50:07.266Z,46.40
2022-12-01T10:55:07.209Z,52.29
2022-12-01T11:00:07.145Z,51.79
2022-12-01T11:05:07.080Z,46.79
2022-12-01T11:10:07.023Z,56.29
2022-12-01T11:15:06.956Z,58.90
2022-12-01T11:20:06.941Z,49.50
2022-12-01T11:25:06.829Z,58.20
2022-12-01T11:30:06.775Z,58.29
2022-12-01T11:35:06.739Z,48.90
2022-12-01T11:40:06.688Z,55.79
2022-12-01T11:45:06.583Z,54.29
2022-12-01T11:50:06.510Z,57.40
2022-12-01T11:55:10.143Z,46.40
2022-12-01T12:00:06.384Z,59.90
2022-12-01T12:05:06.328Z,55.40
2022-12-01T12:10:06.258Z,61.59
2022-12-01T12:15:06.202Z,55.50
2022-12-01T12:20:08.172Z,55.00
2022-12-01T12:25:06.078Z,57.40
2022-12-01T12:30:06.019Z,54.70
2022-12-01T12:35:05.952Z,62.29
2022-12-01T12:40:05.893Z,56.50
2022-12-01T12:45:05.826Z,57.50
2022-12-01T12:50:05.764Z,57.09
2022-12-01T12:55:05.702Z,53.50
2022-12-01T13:00:05.632Z,52.70
2022-12-01T13:05:05.574Z,51.40
2022-12-01T13:10:05.502Z,54.59
2022-12-01T13:15:05.448Z,56.40
2022-12-01T13:20:05.376Z,57.70
2022-12-01T13:25:05.324Z,53.79
2022-12-01T13:30:05.266Z,53.50
2022-12-01T13:35:05.199Z,58.40
2022-12-01T13:40:05.140Z,53.70
2022-12-01T13:45:05.074Z,57.20
2022-12-01T13:50:05.001Z,56.59
2022-12-01T13:55:04.945Z,58.79
2022-12-01T14:00:04.877Z,53.40
2022-12-01T14:05:04.821Z,54.70
2022-12-01T14:10:04.751Z,50.70
2022-12-01T14:15:04.693Z,57.50
2022-12-01T14:20:04.635Z,58.50
2022-12-01T14:25:04.602Z,56.90
2022-12-01T14:30:04.508Z,65.80
2022-12-01T14:35:04.442Z,56.00
2022-12-01T14:40:04.385Z,59.90
2022-12-01T14:45:04.385Z,68.50
2022-12-01T14:50:04.256Z,63.70
2022-12-01T14:55:04.190Z,76.80
2022-12-01T15:00:04.142Z,69.59
2022-12-01T15:05:04.063Z,71.19
2022-12-01T15:10:03.995Z,79.80
2022-12-01T15:15:04.653Z,62.40
2022-12-01T15:20:03.866Z,58.00
2022-12-01T15:25:03.814Z,58.09
2022-12-01T15:30:03.763Z,61.79
2022-12-01T15:35:03.682Z,74.00
2022-12-01T15:40:43.488Z,57.90
2022-12-01T15:45:04.585Z,56.40
2022-12-01T15:50:03.664Z,64.40
2022-12-01T15:55:03.427Z,64.00
2022-12-01T16:00:03.476Z,58.09
2022-12-01T16:05:03.303Z,63.90
2022-12-01T16:10:03.240Z,63.00
2022-12-01T16:15:03.185Z,56.90
2022-12-01T16:20:03.104Z,56.90
2022-12-01T16:25:03.058Z,61.50
2022-12-01T16:30:02.977Z,48.79
2022-12-01T16:35:03.195Z,57.70
2022-12-01T16:40:02.848Z,56.00
2022-12-01T16:45:02.800Z,54.90
2022-12-01T16:50:02.841Z,52.90
2022-12-01T16:55:02.664Z,52.90
2022-12-01T17:00:02.700Z,62.79
2022-12-01T17:05:02.536Z,58.20
2022-12-01T17:10:02.556Z,53.40
2022-12-01T17:15:02.411Z,63.50
2022-12-01T17:20:02.426Z,59.79
2022-12-01T17:25:02.328Z,57.09
2022-12-01T17:30:02.331Z,52.09
2022-12-01T17:35:02.173Z,51.50
2022-12-01T17:40:02.191Z,51.40
2022-12-01T17:45:02.048Z,53.40
2022-12-01T17:50:02.193Z,59.00
2022-12-01T17:55:01.917Z,64.00
2022-12-01T18:00:02.072Z,57.70
2022-12-01T18:05:01.881Z,49.40
2022-12-01T18:10:01.903Z,58.59
2022-12-01T18:15:01.651Z,53.59
2022-12-01T18:20:01.604Z,44.29
2022-12-01T18:25:01.524Z,56.40
2022-12-01T18:30:01.453Z,44.90
2022-12-01T18:35:01.403Z,53.50
2022-12-01T18:40:01.352Z,47.20
2022-12-01T18:45:01.268Z,50.29
2022-12-01T18:50:01.197Z,46.70
2022-12-01T18:55:01.157Z,46.20
2022-12-01T19:00:01.072Z,53.90
2022-12-01T19:05:01.027Z,45.70
2022-12-01T19:10:00.947Z,52.29
2022-12-01T19:15:00.898Z,48.70
2022-12-01T19:20:00.817Z,49.29
2022-12-01T19:25:00.772Z,42.70
2022-12-01T19:30:00.693Z,49.40
2022-12-01T19:35:00.640Z,46.79
2022-12-01T19:40:00.566Z,46.70
2022-12-01T19:45:00.509Z,46.90
2022-12-01T19:50:00.438Z,55.20
2022-12-01T19:55:00.383Z,53.00
2022-12-01T20:00:00.314Z,46.40
2022-12-01T20:05:00.254Z,47.40
2022-12-01T20:10:00.207Z,46.70
2022-12-01T20:15:00.146Z,44.90
2022-12-01T20:20:00.064Z,47.00
2022-12-01T20:25:00.017Z,45.79
2022-12-01T20:29:59.939Z,50.09
2022-12-01T20:34:59.884Z,46.59
2022-12-01T20:39:59.803Z,44.29
2022-12-01T20:44:59.756Z,48.70
2022-12-01T20:49:59.675Z,49.29
2022-12-01T20:54:59.619Z,42.90
2022-12-01T20:59:59.547Z,47.40
2022-12-01T21:04:59.708Z,51.20
2022-12-01T21:09:59.417Z,43.09
2022-12-01T21:14:59.364Z,53.29
2022-12-01T21:19:59.292Z,50.59
2022-12-01T21:24:59.236Z,51.29
2022-12-01T21:29:59.165Z,56.79
2022-12-01T21:34:59.109Z,46.40
2022-12-01T21:39:59.037Z,50.40
2022-12-01T21:44:58.984Z,67.80
2022-12-01T21:49:58.908Z,61.70
2022-12-01T21:54:58.853Z,59.40
2022-12-01T21:59:58.782Z,53.59
2022-12-01T22:04:58.724Z,54.79
2022-12-01T22:09:58.652Z,58.09
2022-12-01T22:14:58.597Z,50.40
2022-12-01T22:19:58.583Z,55.70
2022-12-01T22:24:58.467Z,54.40
2022-12-01T22:29:58.411Z,56.29
2022-12-01T22:34:58.338Z,62.79
2022-12-01T22:39:58.279Z,60.70
2022-12-01T22:44:58.212Z,57.70
2022-12-01T22:49:58.150Z,61.59
2022-12-01T22:54:58.083Z,58.50
2022-12-01T22:59:58.009Z,62.50
2022-12-01T23:04:57.955Z,54.70
2022-12-01T23:09:57.882Z,57.50
2022-12-01T23:14:57.826Z,52.59
2022-12-01T23:19:57.753Z,55.90
2022-12-01T23:24:57.697Z,59.40
2022-12-01T23:29:57.626Z,60.50
2022-12-01T23:35:00.262Z,52.29
2022-12-01T23:39:57.509Z,53.40
2022-12-01T23:44:57.442Z,55.40
2022-12-01T23:49:57.380Z,54.29
2022-12-01T23:54:57.313Z,51.29
2022-12-01T23:59:57.252Z,56.29
